Time;durP1;ratioP1;P1;durP2;ratioP2;P2;SDS_P1;SDS_P2;PMS_P1;PMS_P2;Temp;Humidity;BMP_temperature;BMP_pressure;BME280_temperature;BME280_humidity;BME280_pressure;Samples;Min_cycle;Max_cycle;Signal;HPM_P1;HPM_P2
2021/11/25 00:01:35;;;;;;;;;;;7.00;99.90;;;;;;5011157;28;19913;-64
2021/11/25 00:04:00;;;;;;;;;;;6.90;99.90;;;;;;5008069;28;19948;-64
2021/11/25 00:06:26;;;;;;;;;;;6.90;99.90;;;;;;5014314;28;19939;-67
2021/11/25 00:08:51;;;;;;;;;;;6.90;99.90;;;;;;5027777;28;19915;-63
2021/11/25 00:14:20;;;;;;;;;;;7.00;99.90;;;;;;5011709;28;19915;-64
2021/11/25 00:16:46;;;;;;;;;;;7.00;99.90;;;;;;5008289;28;19913;-64
2021/11/25 00:19:12;;;;;;;;;;;7.10;99.90;;;;;;5021016;28;19914;-64
2021/11/25 00:21:37;;;;;;;;;;;7.00;99.90;;;;;;5022878;28;20378;-64
2021/11/25 00:24:05;;;;;;;;;;;7.10;99.90;;;;;;5021115;28;19914;-64
2021/11/25 00:26:31;;;;;;;;;;;7.10;99.90;;;;;;5021250;28;19921;-64
2021/11/25 00:28:56;;;;;;;;;;;7.10;99.90;;;;;;5021385;28;20107;-64
2021/11/25 00:31:21;;;;;;;;;;;7.10;99.90;;;;;;5011367;28;20000;-65
2021/11/25 00:33:47;;;;;;;;;;;7.10;99.90;;;;;;5013052;28;19940;-67
2021/11/25 00:36:12;;;;;;;;;;;7.10;99.90;;;;;;5014214;28;19940;-65
2021/11/25 00:38:38;;;;;;;;;;;7.10;99.90;;;;;;5008338;28;19913;-63
2021/11/25 00:41:03;;;;;;;;;;;7.20;99.90;;;;;;5007865;28;19920;-63
2021/11/25 00:43:29;;;;;;;;;;;7.20;99.90;;;;;;5008548;28;20374;-64
2021/11/25 00:45:54;;;;;;;;;;;7.10;99.90;;;;;;5018610;28;19913;-65
2021/11/25 00:48:20;;;;;;;;;;;7.10;99.90;;;;;;5007732;28;19917;-64
2021/11/25 00:50:46;;;;;;;;;;;7.10;99.90;;;;;;5018450;28;19909;-64
2021/11/25 00:53:14;;;;;;;;;;;7.10;99.90;;;;;;5014448;28;19921;-64
2021/11/25 00:55:40;;;;;;;;;;;7.10;99.90;;;;;;5007469;28;19956;-65
2021/11/25 00:58:06;;;;;;;;;;;7.10;99.90;;;;;;5007812;28;20325;-64
2021/11/25 01:00:31;;;;;;;;;;;7.10;99.90;;;;;;5007385;28;19948;-64
2021/11/25 01:02:57;;;;;;;;;;;7.00;99.90;;;;;;5007838;28;19909;-65
2021/11/25 01:05:22;;;;;;;;;;;7.00;99.90;;;;;;5008445;28;20324;-64
2021/11/25 01:07:48;;;;;;;;;;;7.10;99.90;;;;;;5028499;28;19917;-63
2021/11/25 01:10:14;;;;;;;;;;;7.10;99.90;;;;;;5032211;28;20300;-65
2021/11/25 01:12:40;;;;;;;;;;;7.10;99.90;;;;;;5013527;28;19913;-64
2021/11/25 01:15:06;;;;;;;;;;;7.10;99.90;;;;;;5009879;28;19909;-65
2021/11/25 01:17:32;;;;;;;;;;;7.10;99.90;;;;;;5007768;28;19916;-63
2021/11/25 01:19:57;;;;;;;;;;;7.10;99.90;;;;;;5022603;28;19910;-64
2021/11/25 01:22:23;;;;;;;;;;;7.10;99.90;;;;;;5007220;28;20131;-64
2021/11/25 01:24:48;;;;;;;;;;;7.00;99.90;;;;;;5007233;28;19914;-64
2021/11/25 01:27:16;;;;;;;;;;;7.00;99.90;;;;;;5008265;28;19953;-65
2021/11/25 01:29:42;;;;;;;;;;;7.00;99.90;;;;;;5007259;28;19914;-64
2021/11/25 01:32:07;;;;;;;;;;;7.00;99.90;;;;;;5007397;28;20366;-64
2021/11/25 01:34:33;;;;;;;;;;;7.00;99.90;;;;;;5007123;28;19914;-65
2021/11/25 01:36:58;;;;;;;;;;;6.90;99.90;;;;;;5009967;28;19910;-64
2021/11/25 01:39:24;;;;;;;;;;;6.80;99.90;;;;;;5010924;28;19964;-64
2021/11/25 01:41:49;;;;;;;;;;;6.80;99.90;;;;;;5011468;28;19917;-65
2021/11/25 01:44:15;;;;;;;;;;;6.80;99.90;;;;;;5015844;28;20360;-64
2021/11/25 01:46:41;;;;;;;;;;;6.90;99.90;;;;;;5030078;28;19921;-65
2021/11/25 01:49:06;;;;;;;;;;;6.90;99.90;;;;;;5030580;28;19917;-65
2021/11/25 01:51:32;;;;;;;;;;;6.90;99.90;;;;;;5030680;28;20478;-64
2021/11/25 01:53:58;;;;;;;;;;;6.90;99.90;;;;;;5017019;28;19909;-64
2021/11/25 01:56:23;;;;;;;;;;;7.00;99.90;;;;;;5008225;28;19944;-64
2021/11/25 01:58:49;;;;;;;;;;;6.90;99.90;;;;;;5021615;28;19910;-64
2021/11/25 02:01:16;;;;;;;;;;;6.90;99.90;;;;;;5009961;28;19968;-65
2021/11/25 02:03:42;;;;;;;;;;;6.80;99.90;;;;;;5010074;28;19924;-64
2021/11/25 02:06:08;;;;;;;;;;;6.70;99.90;;;;;;5013007;28;19921;-65
2021/11/25 02:08:34;;;;;;;;;;;6.60;99.90;;;;;;5030656;28;19916;-64
2021/11/25 02:11:00;;;;;;;;;;;6.60;99.90;;;;;;5022662;28;20285;-63
2021/11/25 02:13:25;;;;;;;;;;;6.50;99.90;;;;;;5021481;28;19916;-63
2021/11/25 02:15:51;;;;;;;;;;;6.50;99.90;;;;;;5023429;28;20405;-63
2021/11/25 02:18:18;;;;;;;;;;;6.60;99.90;;;;;;5010096;28;19919;-63
2021/11/25 02:20:48;;;;;;;;;;;6.60;99.90;;;;;;5010030;28;19913;-65
2021/11/25 02:23:14;;;;;;;;;;;6.60;99.90;;;;;;5009855;28;19936;-65
2021/11/25 02:25:40;;;;;;;;;;;6.60;99.90;;;;;;5010347;28;19920;-63
2021/11/25 02:28:06;;;;;;;;;;;6.50;99.90;;;;;;5022123;28;19925;-64
2021/11/25 02:30:32;;;;;;;;;;;6.50;99.90;;;;;;5037284;28;19944;-65
2021/11/25 02:32:57;;;;;;;;;;;6.40;99.90;;;;;;5013143;28;20004;-64
2021/11/25 02:35:25;;;;;;;;;;;6.50;99.90;;;;;;5027256;28;19944;-64
2021/11/25 02:37:53;;;;;;;;;;;6.60;99.90;;;;;;5029914;28;19913;-64
2021/11/25 02:40:23;;;;;;;;;;;6.60;99.90;;;;;;5025237;28;20465;-64
2021/11/25 02:42:51;;;;;;;;;;;6.50;99.90;;;;;;5009289;28;19913;-64
2021/11/25 02:45:16;;;;;;;;;;;6.60;99.90;;;;;;5023995;28;19913;-64
2021/11/25 02:47:42;;;;;;;;;;;6.50;99.90;;;;;;5037360;28;19925;-64
2021/11/25 02:50:08;;;;;;;;;;;6.50;99.90;;;;;;5007525;28;19909;-65
2021/11/25 02:52:38;;;;;;;;;;;6.50;99.90;;;;;;5009593;28;19914;-64
2021/11/25 02:55:03;;;;;;;;;;;6.50;99.90;;;;;;4992829;28;19983;-64
2021/11/25 02:57:32;;;;;;;;;;;6.60;99.90;;;;;;5009663;28;19959;-64
2021/11/25 02:59:58;;;;;;;;;;;6.70;99.90;;;;;;5009057;28;20194;-67
2021/11/25 03:02:23;;;;;;;;;;;6.60;99.90;;;;;;5024386;28;19913;-64
2021/11/25 03:04:49;;;;;;;;;;;6.60;99.90;;;;;;5017273;28;20260;-64
2021/11/25 03:07:14;;;;;;;;;;;6.60;99.90;;;;;;5021746;28;20443;-65
2021/11/25 03:09:39;;;;;;;;;;;6.60;99.90;;;;;;5020616;28;19914;-65
2021/11/25 03:12:05;;;;;;;;;;;6.60;99.90;;;;;;5008903;28;19964;-65
2021/11/25 03:14:30;;;;;;;;;;;6.60;99.90;;;;;;5009194;28;20011;-64
2021/11/25 03:16:56;;;;;;;;;;;6.50;99.90;;;;;;5008993;28;20294;-64
2021/11/25 03:19:21;;;;;;;;;;;6.60;99.90;;;;;;5009317;28;19955;-65
2021/11/25 03:21:47;;;;;;;;;;;6.60;99.90;;;;;;5008257;28;19921;-64
2021/11/25 03:24:12;;;;;;;;;;;6.60;99.90;;;;;;5008643;28;19940;-63
2021/11/25 03:26:38;;;;;;;;;;;6.60;99.90;;;;;;5008410;28;19918;-64
2021/11/25 03:29:03;;;;;;;;;;;6.60;99.90;;;;;;5008429;28;19909;-64
2021/11/25 03:31:30;;;;;;;;;;;6.70;99.90;;;;;;5009211;28;19996;-65
2021/11/25 03:33:56;;;;;;;;;;;6.60;99.90;;;;;;5008710;28;19910;-64
2021/11/25 03:36:22;;;;;;;;;;;6.70;99.90;;;;;;5011514;28;19913;-64
2021/11/25 03:38:48;;;;;;;;;;;6.70;99.90;;;;;;5009117;28;20048;-64
2021/11/25 03:41:14;;;;;;;;;;;6.80;99.90;;;;;;5008484;28;19910;-64
2021/11/25 03:43:39;;;;;;;;;;;6.80;99.90;;;;;;5024003;28;19909;-66
2021/11/25 03:46:05;;;;;;;;;;;6.80;99.90;;;;;;5023887;28;20169;-64
2021/11/25 03:48:31;;;;;;;;;;;6.80;99.90;;;;;;5027323;28;19913;-65
2021/11/25 03:50:57;;;;;;;;;;;6.80;99.90;;;;;;5043988;28;19948;-64
2021/11/25 03:53:23;;;;;;;;;;;6.80;99.90;;;;;;5042573;28;19913;-65
2021/11/25 03:55:48;;;;;;;;;;;6.80;99.90;;;;;;5015423;28;19971;-65
2021/11/25 03:58:14;;;;;;;;;;;6.80;99.90;;;;;;5010242;28;19916;-66
2021/11/25 04:00:39;;;;;;;;;;;6.90;99.90;;;;;;5009335;28;19968;-65
2021/11/25 04:03:05;;;;;;;;;;;7.00;99.90;;;;;;5009287;28;19917;-65
2021/11/25 04:05:31;;;;;;;;;;;6.90;99.90;;;;;;5008487;28;20401;-65
2021/11/25 04:07:56;;;;;;;;;;;6.90;99.90;;;;;;5027350;28;19980;-66
2021/11/25 04:10:22;;;;;;;;;;;6.90;99.90;;;;;;5027917;28;19909;-65
2021/11/25 04:12:47;;;;;;;;;;;6.90;99.90;;;;;;5028170;28;19909;-66
2021/11/25 04:15:15;;;;;;;;;;;6.90;99.90;;;;;;5026751;28;19913;-65
2021/11/25 04:17:40;;;;;;;;;;;6.80;99.90;;;;;;5028047;28;20073;-65
2021/11/25 04:20:06;;;;;;;;;;;6.70;99.90;;;;;;5027829;28;19913;-65
2021/11/25 04:22:32;;;;;;;;;;;6.80;99.90;;;;;;5027799;28;20292;-64
2021/11/25 04:24:58;;;;;;;;;;;7.00;99.90;;;;;;5010325;28;19913;-65
2021/11/25 04:27:23;;;;;;;;;;;7.00;99.90;;;;;;5007655;28;19940;-64
2021/11/25 04:29:58;;;;;;;;;;;6.80;99.90;;;;;;5007409;28;19988;-65
2021/11/25 04:37:52;;;;;;;;;;;6.80;99.90;;;;;;5025008;28;19920;-64
2021/11/25 04:40:17;;;;;;;;;;;6.70;99.90;;;;;;5017985;28;20338;-64
2021/11/25 04:42:43;;;;;;;;;;;6.70;99.90;;;;;;5008376;28;19914;-66
2021/11/25 04:45:08;;;;;;;;;;;6.70;99.90;;;;;;5008426;28;19909;-65
2021/11/25 04:47:34;;;;;;;;;;;6.60;99.90;;;;;;5013755;28;20142;-65
2021/11/25 04:50:00;;;;;;;;;;;6.70;99.90;;;;;;5022487;28;19910;-65
2021/11/25 04:52:25;;;;;;;;;;;6.60;99.90;;;;;;5022590;28;19952;-64
2021/11/25 04:54:51;;;;;;;;;;;6.70;99.90;;;;;;5022050;28;19940;-65
2021/11/25 04:57:16;;;;;;;;;;;6.80;99.90;;;;;;5012424;28;19913;-65
2021/11/25 04:59:42;;;;;;;;;;;6.80;99.90;;;;;;5010319;28;20072;-65
2021/11/25 05:02:07;;;;;;;;;;;6.90;99.90;;;;;;5009392;28;19916;-65
2021/11/25 05:04:33;;;;;;;;;;;6.90;99.90;;;;;;5009102;28;19917;-62
2021/11/25 05:06:58;;;;;;;;;;;7.00;99.90;;;;;;5018603;28;20447;-64
2021/11/25 05:09:24;;;;;;;;;;;7.00;99.90;;;;;;5028668;28;19920;-64
2021/11/25 05:11:49;;;;;;;;;;;6.90;99.90;;;;;;5030922;28;19936;-63
2021/11/25 05:14:15;;;;;;;;;;;6.90;99.90;;;;;;5033371;28;19975;-65
2021/11/25 05:16:40;;;;;;;;;;;6.90;99.90;;;;;;5029764;28;20425;-64
2021/11/25 05:19:06;;;;;;;;;;;6.90;99.90;;;;;;5011419;28;19913;-65
2021/11/25 05:21:31;;;;;;;;;;;6.80;99.90;;;;;;5011687;28;20226;-64
2021/11/25 05:23:57;;;;;;;;;;;6.80;99.90;;;;;;5019402;28;20454;-65
2021/11/25 05:26:22;;;;;;;;;;;6.70;99.90;;;;;;5027204;28;20400;-65
2021/11/25 05:28:48;;;;;;;;;;;6.80;99.90;;;;;;5030415;28;20212;-64
2021/11/25 05:31:13;;;;;;;;;;;6.80;99.90;;;;;;5028525;28;20357;-64
2021/11/25 05:33:39;;;;;;;;;;;6.80;99.90;;;;;;5011265;28;19914;-64
2021/11/25 05:36:04;;;;;;;;;;;6.80;99.90;;;;;;5023642;28;20290;-64
2021/11/25 05:38:30;;;;;;;;;;;6.90;99.90;;;;;;5019080;28;20440;-64
2021/11/25 05:40:55;;;;;;;;;;;6.90;99.90;;;;;;5011305;28;20212;-64
2021/11/25 05:43:21;;;;;;;;;;;6.90;99.90;;;;;;5010364;28;20357;-63
2021/11/25 05:45:46;;;;;;;;;;;6.90;99.90;;;;;;5010802;28;19909;-64
2021/11/25 05:48:12;;;;;;;;;;;6.80;99.90;;;;;;5008895;28;19960;-64
2021/11/25 05:50:37;;;;;;;;;;;6.80;99.90;;;;;;5010796;28;19933;-64
2021/11/25 05:53:03;;;;;;;;;;;6.90;99.90;;;;;;5010548;28;19914;-64
2021/11/25 05:55:30;;;;;;;;;;;6.80;99.90;;;;;;5010407;28;19909;-64
2021/11/25 05:57:56;;;;;;;;;;;6.80;99.90;;;;;;5004713;28;20462;-65
2021/11/25 06:00:21;;;;;;;;;;;6.80;99.90;;;;;;5009598;28;19918;-64
2021/11/25 06:02:48;;;;;;;;;;;6.80;99.90;;;;;;5018294;28;19917;-63
2021/11/25 06:05:16;;;;;;;;;;;6.70;99.90;;;;;;5010295;28;19917;-63
2021/11/25 06:07:46;;;;;;;;;;;6.70;99.90;;;;;;5014021;28;20575;-63
2021/11/25 06:10:12;;;;;;;;;;;6.70;99.90;;;;;;5016910;28;20381;-63
2021/11/25 06:12:38;;;;;;;;;;;6.80;99.90;;;;;;5010823;28;20397;-64
2021/11/25 06:15:04;;;;;;;;;;;6.90;99.90;;;;;;5010567;28;20008;-64
2021/11/25 06:17:29;;;;;;;;;;;6.90;99.90;;;;;;5022958;28;19939;-63
2021/11/25 06:19:55;;;;;;;;;;;7.00;99.90;;;;;;5021646;28;19921;-64
2021/11/25 06:22:22;;;;;;;;;;;7.00;99.90;;;;;;5008931;28;19976;-64
2021/11/25 06:24:47;;;;;;;;;;;7.00;99.90;;;;;;5007959;28;19913;-63
2021/11/25 06:27:13;;;;;;;;;;;7.10;99.90;;;;;;5008883;28;19941;-64
2021/11/25 06:29:38;;;;;;;;;;;7.00;99.90;;;;;;5009082;28;19956;-63
2021/11/25 06:32:04;;;;;;;;;;;7.00;99.90;;;;;;5008433;28;19913;-63
2021/11/25 06:34:30;;;;;;;;;;;7.00;99.90;;;;;;5008024;28;20190;-63
2021/11/25 06:36:55;;;;;;;;;;;7.00;99.90;;;;;;5010012;28;20247;-65
2021/11/25 06:39:21;;;;;;;;;;;6.90;99.90;;;;;;5011310;28;19917;-63
2021/11/25 06:41:46;;;;;;;;;;;6.80;99.90;;;;;;5013972;28;20004;-64
2021/11/25 06:44:11;;;;;;;;;;;6.90;99.90;;;;;;5021977;28;19968;-63
2021/11/25 06:46:37;;;;;;;;;;;6.90;99.90;;;;;;5025053;28;20331;-63
2021/11/25 06:49:03;;;;;;;;;;;6.80;99.90;;;;;;5008900;28;20008;-64
2021/11/25 06:51:28;;;;;;;;;;;6.80;99.90;;;;;;5025839;28;19991;-63
2021/11/25 06:53:54;;;;;;;;;;;6.70;99.90;;;;;;5010270;28;19969;-65
2021/11/25 06:56:19;;;;;;;;;;;6.80;99.90;;;;;;5010585;28;19909;-65
2021/11/25 06:58:45;;;;;;;;;;;6.70;99.90;;;;;;5009133;28;20585;-64
2021/11/25 07:01:10;;;;;;;;;;;6.60;99.90;;;;;;5009404;28;20616;-64
2021/11/25 07:03:36;;;;;;;;;;;6.70;99.90;;;;;;5008577;28;20198;-63
2021/11/25 07:06:02;;;;;;;;;;;6.70;99.90;;;;;;5010608;28;20020;-64
2021/11/25 07:08:28;;;;;;;;;;;6.70;99.90;;;;;;5011339;28;19980;-64
2021/11/25 07:10:53;;;;;;;;;;;6.80;99.90;;;;;;5008749;28;20382;-64
2021/11/25 07:13:19;;;;;;;;;;;6.80;99.90;;;;;;5009216;28;19910;-64
2021/11/25 07:15:44;;;;;;;;;;;6.80;99.90;;;;;;5011745;28;19909;-63
2021/11/25 07:18:10;;;;;;;;;;;6.90;99.90;;;;;;5007398;28;19921;-64
2021/11/25 07:20:35;;;;;;;;;;;6.80;99.90;;;;;;5007486;28;19913;-64
2021/11/25 07:23:01;;;;;;;;;;;6.90;99.90;;;;;;5007581;28;19968;-64
2021/11/25 07:25:26;;;;;;;;;;;6.90;99.90;;;;;;5009843;28;19909;-64
2021/11/25 07:27:52;;;;;;;;;;;7.00;99.90;;;;;;5011291;28;20374;-64
2021/11/25 07:30:18;;;;;;;;;;;6.90;99.90;;;;;;5011140;28;19933;-64
2021/11/25 07:32:44;;;;;;;;;;;6.90;99.90;;;;;;5011413;28;20354;-64
2021/11/25 07:35:10;;;;;;;;;;;6.90;99.90;;;;;;5010008;28;19910;-63
2021/11/25 07:37:36;;;;;;;;;;;6.90;99.90;;;;;;5008514;28;19910;-64
2021/11/25 07:40:02;;;;;;;;;;;6.90;99.90;;;;;;5008778;28;19913;-65
2021/11/25 07:42:27;;;;;;;;;;;6.80;99.90;;;;;;5012037;28;19910;-63
2021/11/25 07:44:53;;;;;;;;;;;6.80;99.90;;;;;;5020049;28;19980;-64
2021/11/25 07:47:22;;;;;;;;;;;6.80;99.90;;;;;;5020598;28;19913;-64
2021/11/25 07:49:48;;;;;;;;;;;6.80;99.90;;;;;;5011321;28;19910;-64
2021/11/25 07:52:14;;;;;;;;;;;6.80;99.90;;;;;;5009062;28;19913;-65
2021/11/25 07:54:39;;;;;;;;;;;6.80;99.90;;;;;;5008435;28;19916;-64
2021/11/25 07:57:05;;;;;;;;;;;6.80;99.90;;;;;;5000055;28;20195;-63
2021/11/25 07:59:30;;;;;;;;;;;6.90;99.90;;;;;;5017451;28;19933;-64
2021/11/25 08:01:56;;;;;;;;;;;6.80;99.90;;;;;;5009513;28;19917;-64
2021/11/25 08:04:22;;;;;;;;;;;6.80;99.90;;;;;;5004933;28;19928;-64
2021/11/25 08:06:48;;;;;;;;;;;6.70;99.90;;;;;;5015111;28;19920;-63
2021/11/25 08:09:13;;;;;;;;;;;6.80;99.90;;;;;;5026035;28;20433;-64
2021/11/25 08:11:39;;;;;;;;;;;6.80;99.90;;;;;;5023919;28;19921;-64
2021/11/25 08:14:04;;;;;;;;;;;6.90;99.90;;;;;;5009899;28;19913;-65
2021/11/25 08:16:29;;;;;;;;;;;7.00;99.90;;;;;;5008579;28;19916;-65
2021/11/25 08:18:55;;;;;;;;;;;7.00;99.90;;;;;;5008024;28;19910;-64
2021/11/25 08:21:22;;;;;;;;;;;7.10;99.90;;;;;;5008936;28;19917;-65
2021/11/25 08:23:48;;;;;;;;;;;7.20;99.90;;;;;;5008351;28;19909;-63
2021/11/25 08:26:13;;;;;;;;;;;7.10;99.90;;;;;;5008389;28;20294;-65
2021/11/25 08:28:41;;;;;;;;;;;7.20;99.90;;;;;;5008131;28;20016;-65
2021/11/25 08:31:07;;;;;;;;;;;7.20;99.90;;;;;;5008406;28;19996;-64
2021/11/25 08:33:32;;;;;;;;;;;7.30;99.90;;;;;;5007885;28;19955;-68
2021/11/25 08:35:58;;;;;;;;;;;7.30;99.90;;;;;;5014568;28;19917;-65
2021/11/25 08:38:23;;;;;;;;;;;7.40;99.90;;;;;;5023015;28;20001;-65
2021/11/25 08:40:49;;;;;;;;;;;7.40;99.90;;;;;;5023311;28;19916;-65
2021/11/25 08:43:17;;;;;;;;;;;7.40;99.90;;;;;;5016171;28;19910;-64
2021/11/25 08:45:42;;;;;;;;;;;7.40;99.90;;;;;;5010400;28;19921;-65
2021/11/25 08:48:08;;;;;;;;;;;7.40;99.90;;;;;;5012652;28;19913;-64
2021/11/25 08:50:33;;;;;;;;;;;7.40;99.90;;;;;;5028042;28;19920;-64
2021/11/25 08:52:59;;;;;;;;;;;7.40;99.90;;;;;;5032251;28;20331;-65
2021/11/25 08:55:25;;;;;;;;;;;7.50;99.90;;;;;;5031959;28;20001;-64
2021/11/25 08:57:50;;;;;;;;;;;7.50;99.90;;;;;;5032183;28;20405;-63
2021/11/25 09:00:16;;;;;;;;;;;7.60;99.90;;;;;;5037355;28;20286;-64
2021/11/25 09:02:42;;;;;;;;;;;7.60;99.90;;;;;;5011618;28;20292;-64
2021/11/25 09:05:09;;;;;;;;;;;7.60;99.90;;;;;;5012347;28;19914;-64
2021/11/25 09:07:34;;;;;;;;;;;7.60;99.90;;;;;;5012196;28;19913;-65
2021/11/25 09:10:00;;;;;;;;;;;7.60;99.90;;;;;;5010786;28;20013;-64
2021/11/25 09:12:25;;;;;;;;;;;7.80;99.90;;;;;;5011429;28;19936;-65
2021/11/25 09:14:50;;;;;;;;;;;7.80;99.90;;;;;;5012115;28;19913;-64
2021/11/25 09:17:16;;;;;;;;;;;7.80;99.90;;;;;;5012130;28;19956;-65
2021/11/25 09:19:41;;;;;;;;;;;7.70;99.90;;;;;;5011514;28;19936;-64
2021/11/25 09:22:07;;;;;;;;;;;7.80;99.90;;;;;;5011686;28;19996;-64
2021/11/25 09:24:32;;;;;;;;;;;7.90;99.90;;;;;;5010964;28;20135;-65
2021/11/25 09:27:02;;;;;;;;;;;7.80;99.90;;;;;;5011375;28;20004;-64
2021/11/25 09:29:28;;;;;;;;;;;7.80;99.90;;;;;;5026414;28;20298;-64
2021/11/25 09:31:53;;;;;;;;;;;7.80;99.90;;;;;;5011838;28;20050;-64
2021/11/25 09:34:18;;;;;;;;;;;7.90;99.90;;;;;;5011355;28;19929;-65
2021/11/25 09:36:44;;;;;;;;;;;7.80;99.90;;;;;;5009201;28;19909;-64
2021/11/25 09:39:10;;;;;;;;;;;7.60;99.90;;;;;;5009471;28;19933;-67
2021/11/25 09:41:36;;;;;;;;;;;7.60;99.90;;;;;;5009107;28;20321;-67
2021/11/25 09:44:02;;;;;;;;;;;7.50;99.90;;;;;;5010263;28;19918;-66
2021/11/25 09:46:28;;;;;;;;;;;7.40;99.90;;;;;;5009313;28;19972;-66
2021/11/25 09:48:54;;;;;;;;;;;7.40;99.90;;;;;;5012284;28;19956;-66
2021/11/25 09:51:22;;;;;;;;;;;7.40;99.90;;;;;;5009753;28;19993;-67
2021/11/25 09:53:48;;;;;;;;;;;7.40;99.90;;;;;;5010558;28;19924;-67
2021/11/25 09:56:14;;;;;;;;;;;7.50;99.90;;;;;;5009827;28;19910;-67
2021/11/25 09:58:39;;;;;;;;;;;7.50;99.90;;;;;;5009489;28;19913;-67
2021/11/25 10:01:12;;;;;;;;;;;7.60;99.90;;;;;;5009597;28;20266;-67
2021/11/25 10:03:40;;;;;;;;;;;7.60;99.90;;;;;;5008874;28;19918;-63
2021/11/25 10:06:05;;;;;;;;;;;7.60;99.90;;;;;;5008786;28;20052;-63
2021/11/25 10:08:43;;;;;;;;;;;7.70;99.90;;;;;;5009079;28;19977;-63
2021/11/25 10:11:13;;;;;;;;;;;7.70;99.90;;;;;;5010946;28;20001;-62
2021/11/25 10:13:44;;;;;;;;;;;7.80;99.90;;;;;;5003416;28;19994;-62
2021/11/25 10:16:12;;;;;;;;;;;7.80;99.90;;;;;;5006569;28;19940;-63
2021/11/25 10:18:38;;;;;;;;;;;7.90;99.90;;;;;;5004986;28;19913;-62
2021/11/25 10:21:05;;;;;;;;;;;7.90;99.90;;;;;;5006469;28;20340;-64
2021/11/25 10:23:31;;;;;;;;;;;8.00;99.90;;;;;;5009132;28;19914;-63
2021/11/25 10:26:01;;;;;;;;;;;8.00;99.90;;;;;;5022035;28;19932;-62
2021/11/25 10:28:30;;;;;;;;;;;8.00;99.90;;;;;;5031235;28;20361;-62
2021/11/25 10:31:06;;;;;;;;;;;8.00;99.90;;;;;;5031372;28;19909;-62
2021/11/25 10:33:43;;;;;;;;;;;8.20;99.90;;;;;;5005998;28;19917;-61
2021/11/25 10:38:45;;;;;;;;;;;8.30;99.90;;;;;;5009878;28;20036;-61
2021/11/25 10:41:14;;;;;;;;;;;8.20;99.90;;;;;;5007876;28;20017;-60
2021/11/25 10:43:40;;;;;;;;;;;8.20;99.90;;;;;;5008348;28;19917;-61
2021/11/25 10:46:06;;;;;;;;;;;8.30;99.90;;;;;;5008814;28;19913;-62
2021/11/25 10:48:35;;;;;;;;;;;8.30;99.90;;;;;;5004315;28;20036;-60
2021/11/25 10:51:20;;;;;;;;;;;8.40;99.90;;;;;;5037982;28;20355;-62
2021/11/25 10:54:04;;;;;;;;;;;8.40;99.90;;;;;;5008185;28;20424;-61
2021/11/25 10:56:34;;;;;;;;;;;8.40;99.90;;;;;;5020716;28;19975;-62
2021/11/25 10:58:59;;;;;;;;;;;8.50;99.90;;;;;;5016431;28;19913;-64
2021/11/25 11:01:31;;;;;;;;;;;8.60;99.90;;;;;;5008503;28;20296;-63
2021/11/25 11:03:57;;;;;;;;;;;8.80;99.90;;;;;;5003976;28;19924;-62
2021/11/25 11:06:28;;;;;;;;;;;8.90;99.90;;;;;;5008497;28;19917;-63
2021/11/25 11:08:54;;;;;;;;;;;8.80;99.90;;;;;;5009042;28;19920;-63
2021/11/25 11:11:19;;;;;;;;;;;8.90;99.90;;;;;;5010509;28;20286;-62
2021/11/25 11:14:13;;;;;;;;;;;8.80;99.90;;;;;;5012837;28;19977;-63
2021/11/25 11:17:04;;;;;;;;;;;8.80;99.90;;;;;;5032680;28;19910;-63
2021/11/25 11:19:29;;;;;;;;;;;8.80;99.90;;;;;;5015962;28;19921;-63
2021/11/25 11:21:56;;;;;;;;;;;8.80;99.90;;;;;;5016143;28;19976;-64
2021/11/25 11:24:22;;;;;;;;;;;8.90;99.90;;;;;;5015238;28;20429;-65
2021/11/25 11:26:48;;;;;;;;;;;8.80;99.90;;;;;;5012470;28;19913;-64
2021/11/25 11:29:16;;;;;;;;;;;8.80;99.90;;;;;;5012497;28;19968;-62
2021/11/25 11:31:42;;;;;;;;;;;8.80;99.90;;;;;;5013815;28;19913;-62
2021/11/25 11:34:09;;;;;;;;;;;8.80;99.90;;;;;;5014385;28;19935;-65
2021/11/25 11:36:39;;;;;;;;;;;8.80;99.90;;;;;;5014535;28;19995;-63
2021/11/25 11:39:04;;;;;;;;;;;8.70;99.90;;;;;;5030096;28;20557;-63
2021/11/25 11:41:31;;;;;;;;;;;8.60;99.90;;;;;;5029681;28;19910;-63
2021/11/25 11:43:58;;;;;;;;;;;8.70;99.90;;;;;;5044876;28;20435;-63
2021/11/25 11:46:24;;;;;;;;;;;8.70;99.90;;;;;;5044708;28;19913;-64
2021/11/25 11:48:51;;;;;;;;;;;8.80;99.90;;;;;;5029727;28;20334;-65
2021/11/25 11:51:18;;;;;;;;;;;8.70;99.90;;;;;;5024517;28;19909;-63
2021/11/25 11:53:45;;;;;;;;;;;8.70;99.90;;;;;;5021266;28;19941;-63
2021/11/25 11:56:12;;;;;;;;;;;8.80;99.90;;;;;;5030237;28;19963;-63
2021/11/25 11:58:39;;;;;;;;;;;8.80;99.90;;;;;;5046786;28;19909;-63
2021/11/25 12:01:14;;;;;;;;;;;8.80;99.90;;;;;;5016099;28;19963;-64
2021/11/25 12:03:50;;;;;;;;;;;8.80;99.90;;;;;;5023871;28;20051;-63
2021/11/25 12:06:29;;;;;;;;;;;8.90;99.90;;;;;;5016460;28;19913;-63
2021/11/25 12:08:54;;;;;;;;;;;8.80;99.90;;;;;;5027933;28;19913;-64
2021/11/25 12:11:20;;;;;;;;;;;8.90;99.90;;;;;;5028326;28;19980;-63
2021/11/25 12:14:00;;;;;;;;;;;8.90;99.90;;;;;;5028046;28;20478;-63
2021/11/25 12:16:31;;;;;;;;;;;8.90;99.90;;;;;;5028297;28;20000;-62
2021/11/25 12:18:57;;;;;;;;;;;8.90;99.90;;;;;;5028098;28;20541;-63
2021/11/25 12:21:43;;;;;;;;;;;8.90;99.90;;;;;;5028829;28;19913;-61
2021/11/25 12:24:11;;;;;;;;;;;8.90;99.90;;;;;;5024584;28;20319;-62
2021/11/25 12:26:55;;;;;;;;;;;8.90;99.90;;;;;;5038982;28;20146;-61
2021/11/25 12:29:36;;;;;;;;;;;8.90;99.90;;;;;;5038322;28;19913;-62
2021/11/25 12:35:15;;;;;;;;;;;9.00;99.90;;;;;;4989550;28;19920;-63
2021/11/25 12:37:43;;;;;;;;;;;9.10;99.90;;;;;;5014702;28;19909;-63
2021/11/25 12:40:14;;;;;;;;;;;9.10;99.90;;;;;;5027768;28;19917;-62
2021/11/25 12:42:41;;;;;;;;;;;9.10;99.90;;;;;;5027400;28;20338;-63
2021/11/25 12:45:27;;;;;;;;;;;9.10;99.90;;;;;;5027394;28;19917;-63
2021/11/25 12:48:05;;;;;;;;;;;9.10;99.90;;;;;;5027118;28;19917;-63
2021/11/25 12:50:31;;;;;;;;;;;9.10;99.90;;;;;;5020962;28;19925;-62
2021/11/25 12:53:03;;;;;;;;;;;9.10;99.90;;;;;;5007359;28;19915;-65
2021/11/25 12:55:29;;;;;;;;;;;9.10;99.90;;;;;;5007604;28;19920;-63
2021/11/25 12:57:55;;;;;;;;;;;9.20;99.90;;;;;;5007743;28;20306;-65
2021/11/25 13:00:22;;;;;;;;;;;9.20;99.90;;;;;;5007377;28;19910;-64
2021/11/25 13:02:48;;;;;;;;;;;9.10;99.90;;;;;;5006091;28;20340;-62
2021/11/25 13:05:14;;;;;;;;;;;9.20;99.90;;;;;;5007216;28;19953;-66
2021/11/25 13:07:47;;;;;;;;;;;9.10;99.90;;;;;;5023042;28;19956;-64
2021/11/25 13:10:20;;;;;;;;;;;9.20;99.90;;;;;;5026146;28;19917;-64
2021/11/25 13:12:46;;;;;;;;;;;9.20;99.90;;;;;;5026569;28;20345;-63
2021/11/25 13:15:12;;;;;;;;;;;9.20;99.90;;;;;;5026914;28;20011;-65
2021/11/25 13:17:37;;;;;;;;;;;9.20;99.90;;;;;;5028000;28;19916;-64
2021/11/25 13:20:03;;;;;;;;;;;9.20;99.90;;;;;;5028266;28;19920;-64
2021/11/25 13:22:28;;;;;;;;;;;9.20;99.90;;;;;;5027265;28;19915;-63
2021/11/25 13:24:55;;;;;;;;;;;9.10;99.90;;;;;;5042677;28;20308;-64
2021/11/25 13:27:22;;;;;;;;;;;9.10;99.90;;;;;;5042919;28;19920;-66
2021/11/25 13:29:55;;;;;;;;;;;9.10;99.90;;;;;;5017449;28;20221;-65
2021/11/25 13:32:25;;;;;;;;;;;9.10;99.90;;;;;;5013027;28;19941;-64
2021/11/25 13:34:52;;;;;;;;;;;9.10;99.90;;;;;;5010713;28;19957;-65
2021/11/25 13:37:20;;;;;;;;;;;9.10;99.90;;;;;;5013864;28;19917;-64
2021/11/25 13:39:47;;;;;;;;;;;9.10;99.90;;;;;;5030650;28;19925;-67
2021/11/25 13:42:14;;;;;;;;;;;9.10;99.90;;;;;;5031236;28;20266;-66
2021/11/25 13:44:45;;;;;;;;;;;9.10;99.90;;;;;;5030996;28;19936;-67
2021/11/25 13:47:22;;;;;;;;;;;9.00;99.90;;;;;;5030721;28;19924;-66
2021/11/25 13:49:53;;;;;;;;;;;9.00;99.90;;;;;;5030353;28;19920;-66
2021/11/25 13:52:20;;;;;;;;;;;9.00;99.90;;;;;;5024273;28;19909;-68
2021/11/25 13:54:46;;;;;;;;;;;9.00;99.90;;;;;;5010762;28;19972;-67
2021/11/25 13:57:16;;;;;;;;;;;9.00;99.90;;;;;;5010935;28;20315;-67
2021/11/25 13:59:42;;;;;;;;;;;9.10;99.90;;;;;;5010124;28;20254;-68
2021/11/25 14:02:07;;;;;;;;;;;9.00;99.90;;;;;;5010711;28;20048;-70
2021/11/25 14:04:33;;;;;;;;;;;9.00;99.90;;;;;;5010218;28;19925;-68
2021/11/25 14:07:13;;;;;;;;;;;9.00;99.90;;;;;;5012214;28;19918;-68
2021/11/25 14:09:39;;;;;;;;;;;9.00;99.90;;;;;;5007496;28;19910;-67
2021/11/25 14:12:06;;;;;;;;;;;9.00;99.90;;;;;;5021812;28;19914;-68
2021/11/25 14:14:35;;;;;;;;;;;9.00;99.90;;;;;;5009633;28;19937;-68
2021/11/25 14:17:07;;;;;;;;;;;8.90;99.90;;;;;;5010471;28;19909;-68
2021/11/25 14:19:33;;;;;;;;;;;9.00;99.90;;;;;;5009330;28;20012;-68
2021/11/25 14:21:58;;;;;;;;;;;8.90;99.90;;;;;;5009200;28;20004;-69
2021/11/25 14:24:28;;;;;;;;;;;8.90;99.90;;;;;;5009420;28;20389;-68
2021/11/25 14:27:03;;;;;;;;;;;9.00;99.90;;;;;;5010010;28;19961;-69
2021/11/25 14:32:26;;;;;;;;;;;9.00;99.90;;;;;;5011374;28;19946;-69
2021/11/25 14:34:51;;;;;;;;;;;8.90;99.90;;;;;;5005417;28;20349;-69
2021/11/25 14:37:22;;;;;;;;;;;8.90;99.90;;;;;;5010384;28;20011;-68
2021/11/25 14:39:48;;;;;;;;;;;8.90;99.90;;;;;;5007903;28;20361;-68
2021/11/25 14:42:18;;;;;;;;;;;8.90;99.90;;;;;;5010825;28;19910;-69
2021/11/25 14:44:44;;;;;;;;;;;8.90;99.90;;;;;;5012485;28;19910;-68
2021/11/25 14:47:14;;;;;;;;;;;8.70;99.90;;;;;;5009421;28;19945;-66